createdAt,value
2023-01-02T00:01:48.456Z,47.03
2023-01-02T00:04:16.821Z,46.85
2023-01-02T00:06:45.129Z,46.61
2023-01-02T00:09:13.596Z,46.34
2023-01-02T00:11:41.952Z,45.44
2023-01-02T00:14:10.260Z,45.67
2023-01-02T00:16:38.860Z,46.58
2023-01-02T00:19:09.614Z,47.06
2023-01-02T00:21:38.063Z,46.71
2023-01-02T00:24:06.906Z,47.21
2023-01-02T00:26:35.326Z,47.12
2023-01-02T00:29:04.291Z,47.29
2023-01-02T00:31:32.782Z,47.69
2023-01-02T00:34:01.277Z,47.93
2023-01-02T00:36:29.898Z,47.88
2023-01-02T00:38:58.574Z,48.73
2023-01-02T00:41:27.058Z,48.28
2023-01-02T00:43:55.532Z,48.56
2023-01-02T00:46:24.349Z,48.84
2023-01-02T00:48:52.811Z,49.33
2023-01-02T00:51:21.152Z,49.27
2023-01-02T00:53:49.481Z,49.43
2023-01-02T00:56:17.954Z,48.59
2023-01-02T00:58:46.396Z,49.33
2023-01-02T01:01:14.870Z,49.26
2023-01-02T01:03:44.491Z,49.22
2023-01-02T01:06:13.882Z,49.27
2023-01-02T01:08:42.738Z,49.39
2023-01-02T01:11:16.959Z,49.77
2023-01-02T01:13:46.397Z,49.53
2023-01-02T01:16:18.096Z,49.28
2023-01-02T01:18:47.587Z,50.01
2023-01-02T01:21:21.616Z,48.89
2023-01-02T01:23:55.057Z,49.84
2023-01-02T01:26:24.172Z,49.67
2023-01-02T01:28:56.499Z,49.51
2023-01-02T01:31:25.654Z,50.29
2023-01-02T01:33:54.412Z,50.31
2023-01-02T01:36:25.262Z,50.50
2023-01-02T01:38:53.712Z,50.45
2023-01-02T01:41:24.730Z,50.95
2023-01-02T01:43:55.707Z,51.33
2023-01-02T01:46:31.013Z,51.47
2023-01-02T01:49:26.099Z,51.99
2023-01-02T01:52:00.641Z,52.18
2023-01-02T01:54:39.701Z,52.07
2023-01-02T01:57:48.333Z,52.29
2023-01-02T02:00:17.287Z,52.69
2023-01-02T02:02:49.839Z,52.86
2023-01-02T02:05:22.553Z,53.15
2023-01-02T02:08:04.998Z,53.67
2023-01-02T02:10:33.608Z,53.90
2023-01-02T02:13:01.976Z,53.82
2023-01-02T02:15:43.794Z,54.10
2023-01-02T02:18:49.127Z,54.11
2023-01-02T02:21:45.935Z,54.30
2023-01-02T02:24:38.673Z,54.97
2023-01-02T02:27:18.878Z,55.12
2023-01-02T02:30:14.899Z,54.90
2023-01-02T02:33:20.115Z,55.07
2023-01-02T02:35:57.113Z,55.30
2023-01-02T02:38:46.252Z,55.47
2023-01-02T02:41:46.177Z,55.98
2023-01-02T02:44:50.071Z,56.29
2023-01-02T02:47:58.675Z,56.36
2023-01-02T02:50:49.929Z,57.14
2023-01-02T02:53:31.376Z,57.27
2023-01-02T02:56:03.532Z,57.82
2023-01-02T02:58:34.441Z,57.78
2023-01-02T03:01:08.732Z,58.30
2023-01-02T03:03:37.253Z,58.53
2023-01-02T03:06:19.849Z,58.51
2023-01-02T03:08:58.890Z,59.09
2023-01-02T03:11:50.511Z,59.30
2023-01-02T03:14:30.091Z,59.55
2023-01-02T03:17:05.339Z,59.71
2023-01-02T03:19:46.374Z,59.31
2023-01-02T03:22:23.177Z,59.51
2023-01-02T03:24:55.379Z,59.99
2023-01-02T03:27:30.738Z,59.93
2023-01-02T03:30:09.134Z,60.27
2023-01-02T03:33:11.043Z,60.61
2023-01-02T03:35:46.129Z,60.92
2023-01-02T03:38:23.976Z,61.05
2023-01-02T03:41:08.249Z,61.18
2023-01-02T03:43:40.820Z,61.37
2023-01-02T03:46:42.733Z,61.45
2023-01-02T03:49:22.904Z,60.85
2023-01-02T03:51:52.435Z,60.78
2023-01-02T03:54:21.621Z,60.18
2023-01-02T03:57:10.558Z,60.24
2023-01-02T03:59:50.584Z,60.15
2023-01-02T04:02:28.718Z,60.00
2023-01-02T04:05:08.827Z,59.89
2023-01-02T04:08:12.273Z,60.09
2023-01-02T04:10:42.259Z,60.07
2023-01-02T04:13:17.918Z,60.28
2023-01-02T04:15:48.647Z,60.53
2023-01-02T04:18:25.055Z,60.98
2023-01-02T04:20:57.457Z,60.88
2023-01-02T04:23:48.159Z,61.17
2023-01-02T04:26:23.215Z,61.71
2023-01-02T04:28:51.850Z,61.65
2023-01-02T04:31:49.460Z,61.86
2023-01-02T04:34:20.309Z,61.91
2023-01-02T04:36:48.817Z,62.15
2023-01-02T04:39:18.674Z,62.28
2023-01-02T04:41:47.054Z,62.43
2023-01-02T04:44:15.376Z,62.47
2023-01-02T04:46:43.886Z,62.76
2023-01-02T04:49:12.328Z,62.93
2023-01-02T04:51:40.754Z,63.15
2023-01-02T04:54:13.248Z,63.24
2023-01-02T04:56:41.730Z,63.05
2023-01-02T04:59:10.233Z,62.67
2023-01-02T05:01:38.722Z,62.79
2023-01-02T05:04:07.214Z,62.52
2023-01-02T05:06:35.659Z,62.30
2023-01-02T05:09:04.196Z,62.24
2023-01-02T05:11:32.797Z,62.32
2023-01-02T05:14:06.963Z,62.21
2023-01-02T05:16:35.534Z,62.48
2023-01-02T05:19:04.015Z,62.67
2023-01-02T05:21:50.728Z,62.61
2023-01-02T05:24:19.052Z,62.96
2023-01-02T05:26:47.479Z,62.92
2023-01-02T05:29:15.890Z,62.97
2023-01-02T05:31:44.365Z,63.07
2023-01-02T05:34:16.172Z,63.11
2023-01-02T05:36:44.924Z,63.39
2023-01-02T05:39:15.379Z,63.19
2023-01-02T05:41:44.493Z,63.49
2023-01-02T05:44:13.283Z,63.55
2023-01-02T05:46:41.828Z,63.70
2023-01-02T05:49:11.355Z,63.95
2023-01-02T05:51:40.156Z,63.80
2023-01-02T05:54:09.215Z,64.00
2023-01-02T05:56:37.622Z,63.91
2023-01-02T05:59:09.292Z,64.33
2023-01-02T06:01:38.093Z,64.48
2023-01-02T06:04:06.735Z,64.41
2023-01-02T06:06:37.575Z,64.63
2023-01-02T06:09:07.535Z,64.71
2023-01-02T06:11:37.560Z,64.62
2023-01-02T06:14:05.962Z,64.59
2023-01-02T06:16:34.486Z,64.51
2023-01-02T06:19:02.847Z,64.75
2023-01-02T06:21:31.355Z,64.68
2023-01-02T06:24:00.191Z,64.30
2023-01-02T06:26:35.004Z,64.18
2023-01-02T06:29:05.135Z,63.89
2023-01-02T06:31:34.466Z,64.09
2023-01-02T06:34:04.968Z,63.91
2023-01-02T06:36:35.496Z,63.97
2023-01-02T06:39:03.999Z,64.10
2023-01-02T06:41:32.669Z,64.00
2023-01-02T06:44:01.127Z,64.23
2023-01-02T06:46:29.598Z,64.32
2023-01-02T06:48:57.942Z,64.24
2023-01-02T06:51:26.515Z,64.26
2023-01-02T06:53:55.061Z,64.43
2023-01-02T06:56:23.681Z,64.60
2023-01-02T06:58:52.121Z,64.09
2023-01-02T07:01:23.787Z,64.79
2023-01-02T07:03:52.335Z,64.57
2023-01-02T07:06:23.212Z,64.43
2023-01-02T07:08:51.698Z,64.46
2023-01-02T07:11:23.174Z,64.62
2023-01-02T07:13:54.118Z,64.27
2023-01-02T07:16:24.226Z,64.14
2023-01-02T07:18:56.157Z,64.20
2023-01-02T07:21:24.960Z,64.05
2023-01-02T07:23:53.434Z,63.87
2023-01-02T07:26:23.064Z,64.27
2023-01-02T07:28:51.387Z,64.13
2023-01-02T07:31:21.199Z,64.55
2023-01-02T07:33:50.575Z,64.65
2023-01-02T07:36:23.064Z,64.83
2023-01-02T07:38:56.191Z,65.10
2023-01-02T07:41:27.227Z,64.83
2023-01-02T07:43:59.545Z,64.72
2023-01-02T07:46:28.058Z,64.94
2023-01-02T07:48:56.349Z,64.75
2023-01-02T07:51:27.230Z,64.25
2023-01-02T07:53:56.819Z,64.58
2023-01-02T07:56:26.155Z,64.60
2023-01-02T07:58:54.599Z,64.59
2023-01-02T08:01:23.330Z,64.35
2023-01-02T08:03:51.905Z,64.70
2023-01-02T08:06:20.699Z,64.58
2023-01-02T08:08:49.291Z,65.04
2023-01-02T08:11:23.549Z,64.85
2023-01-02T08:13:51.999Z,65.24
2023-01-02T08:16:22.933Z,65.27
2023-01-02T08:18:56.343Z,64.76
2023-01-02T08:21:26.648Z,64.70
2023-01-02T08:23:55.071Z,65.02
2023-01-02T08:26:25.004Z,65.01
2023-01-02T08:28:53.466Z,64.86
2023-01-02T08:31:23.312Z,65.21
2023-01-02T08:33:51.833Z,65.55
2023-01-02T08:36:20.209Z,65.68
2023-01-02T08:38:49.006Z,65.38
2023-01-02T08:41:30.728Z,65.70
2023-01-02T08:43:59.191Z,65.49
2023-01-02T08:46:28.343Z,65.64
2023-01-02T08:48:56.810Z,65.39
2023-01-02T08:51:25.634Z,65.81
2023-01-02T08:53:54.425Z,65.34
2023-01-02T08:56:25.628Z,65.61
2023-01-02T08:59:02.935Z,65.61
2023-01-02T09:01:32.826Z,65.77
2023-01-02T09:04:06.230Z,65.78
2023-01-02T09:06:40.142Z,65.79
2023-01-02T09:09:12.126Z,65.79
2023-01-02T09:11:46.279Z,66.10
2023-01-02T09:14:14.719Z,66.17
2023-01-02T09:16:43.649Z,66.22
2023-01-02T09:19:12.027Z,66.32
2023-01-02T09:21:40.508Z,66.21
2023-01-02T09:24:10.050Z,65.91
2023-01-02T09:26:39.388Z,66.67
2023-01-02T09:29:07.846Z,66.45
2023-01-02T09:31:36.388Z,66.47
2023-01-02T09:34:04.825Z,66.45
2023-01-02T09:36:33.624Z,66.46
2023-01-02T09:39:03.708Z,66.54
2023-01-02T09:41:34.573Z,66.78
2023-01-02T09:44:20.350Z,67.11
2023-01-02T09:47:04.827Z,67.02
2023-01-02T09:49:38.086Z,66.88
2023-01-02T09:52:09.008Z,67.42
2023-01-02T09:54:37.435Z,66.81
2023-01-02T09:57:24.833Z,67.21
2023-01-02T10:00:17.498Z,67.12
2023-01-02T10:02:48.650Z,67.18
2023-01-02T10:05:34.104Z,67.30
2023-01-02T10:08:32.570Z,67.31
2023-01-02T10:11:04.053Z,67.51
2023-01-02T10:16:34.588Z,67.27
2023-01-02T10:19:08.697Z,67.20
2023-01-02T10:21:40.630Z,67.34
2023-01-02T10:24:37.655Z,67.21
2023-01-02T10:27:12.855Z,67.18
2023-01-02T10:29:53.960Z,67.34
2023-01-02T10:32:24.436Z,67.25
2023-01-02T10:35:07.712Z,66.98
2023-01-02T10:37:37.088Z,67.20
2023-01-02T10:40:07.327Z,67.24
2023-01-02T10:42:35.828Z,67.25
2023-01-02T10:45:05.109Z,67.84
2023-01-02T10:47:40.695Z,67.47
2023-01-02T10:50:16.839Z,67.72
2023-01-02T10:52:51.361Z,67.15
2023-01-02T10:55:34.139Z,67.57
2023-01-02T10:58:24.452Z,67.50
2023-01-02T11:01:05.189Z,67.83
2023-01-02T11:03:33.785Z,68.25
2023-01-02T11:06:27.010Z,68.13
2023-01-02T11:09:06.285Z,68.20
2023-01-02T11:11:34.904Z,68.36
2023-01-02T11:14:12.353Z,67.70
2023-01-02T11:16:43.004Z,67.93
2023-01-02T11:19:27.430Z,67.72
2023-01-02T11:21:58.431Z,67.73
2023-01-02T11:24:29.315Z,67.36
2023-01-02T11:27:01.809Z,67.67
2023-01-02T11:29:34.094Z,68.09
2023-01-02T11:32:05.038Z,68.08
2023-01-02T11:34:40.182Z,68.17
2023-01-02T11:37:14.716Z,67.77
2023-01-02T11:39:43.932Z,67.75
2023-01-02T11:42:46.249Z,68.10
2023-01-02T11:45:19.707Z,67.51
2023-01-02T11:47:52.467Z,68.15
2023-01-02T11:50:32.594Z,68.02
2023-01-02T11:53:13.625Z,67.78
2023-01-02T11:55:57.304Z,67.82
2023-01-02T11:58:43.838Z,68.12
2023-01-02T12:01:36.823Z,68.30
2023-01-02T12:04:05.677Z,67.96
2023-01-02T12:06:42.906Z,68.00
2023-01-02T12:09:23.457Z,68.01
2023-01-02T12:12:10.110Z,68.41
2023-01-02T12:15:08.506Z,68.01
2023-01-02T12:17:48.986Z,68.27
2023-01-02T12:20:42.262Z,68.04
2023-01-02T12:23:44.194Z,68.11
2023-01-02T12:26:49.974Z,68.58
2023-01-02T12:29:46.344Z,68.66
2023-01-02T12:32:25.661Z,68.33
2023-01-02T12:35:18.742Z,68.32
2023-01-02T12:37:57.793Z,68.81
2023-01-02T12:40:53.726Z,68.40
2023-01-02T12:43:30.758Z,68.42
2023-01-02T12:46:07.576Z,68.98
2023-01-02T12:48:56.828Z,68.96
2023-01-02T12:51:53.993Z,68.33
2023-01-02T12:54:22.279Z,68.82
2023-01-02T12:57:28.834Z,68.81
2023-01-02T13:00:02.919Z,68.01
2023-01-02T13:03:14.521Z,68.07
2023-01-02T13:05:52.665Z,68.04
2023-01-02T13:08:28.195Z,68.38
2023-01-02T13:11:00.668Z,69.00
2023-01-02T13:13:34.941Z,68.29
2023-01-02T13:16:22.622Z,68.50
2023-01-02T13:19:17.464Z,68.60
2023-01-02T13:22:00.185Z,68.11
2023-01-02T13:24:29.629Z,68.50
2023-01-02T13:27:00.012Z,68.85
2023-01-02T13:29:41.471Z,68.21
2023-01-02T13:32:15.235Z,68.25
2023-01-02T13:34:54.606Z,68.51
2023-01-02T13:37:29.602Z,68.53
2023-01-02T13:40:03.975Z,68.27
2023-01-02T13:42:54.903Z,67.93
2023-01-02T13:45:26.123Z,68.30
2023-01-02T13:47:57.974Z,67.94
2023-01-02T13:50:34.913Z,68.26
2023-01-02T13:53:23.349Z,67.75
2023-01-02T13:55:57.098Z,67.65
2023-01-02T13:58:47.387Z,68.00
2023-01-02T14:01:24.909Z,68.13
2023-01-02T14:04:14.285Z,67.46
2023-01-02T14:06:54.018Z,67.82
2023-01-02T14:09:27.543Z,67.72
2023-01-02T14:12:02.755Z,67.72
2023-01-02T14:14:52.468Z,67.88
2023-01-02T14:17:38.267Z,67.16
2023-01-02T14:20:18.985Z,67.64
2023-01-02T14:22:57.943Z,67.38
2023-01-02T14:25:27.231Z,67.41
2023-01-02T14:28:07.577Z,67.42
2023-01-02T14:30:42.286Z,67.38
2023-01-02T14:33:11.413Z,66.73
2023-01-02T14:35:54.919Z,67.13
2023-01-02T14:38:29.091Z,66.57
2023-01-02T14:41:20.341Z,66.99
2023-01-02T14:43:49.963Z,66.96
2023-01-02T14:46:22.795Z,67.12
2023-01-02T14:49:25.413Z,67.11
2023-01-02T14:52:08.043Z,67.71
2023-01-02T14:55:19.565Z,67.06
2023-01-02T14:57:50.860Z,67.02
2023-01-02T15:00:25.907Z,67.42
2023-01-02T15:03:08.826Z,67.25
2023-01-02T15:05:48.986Z,67.22
2023-01-02T15:08:22.552Z,67.75
2023-01-02T15:11:21.629Z,67.75
2023-01-02T15:14:04.019Z,67.85
2023-01-02T15:16:57.432Z,68.00
2023-01-02T15:19:34.725Z,67.42
2023-01-02T15:22:22.749Z,68.17
2023-01-02T15:24:53.952Z,67.78
2023-01-02T15:27:28.168Z,67.63
2023-01-02T15:29:59.264Z,67.62
2023-01-02T15:32:32.978Z,67.82
2023-01-02T15:35:24.030Z,67.81
2023-01-02T15:37:52.778Z,67.41
2023-01-02T15:40:33.306Z,67.50
2023-01-02T15:43:26.285Z,67.23
2023-01-02T15:45:55.076Z,67.21
2023-01-02T15:48:28.524Z,67.36
2023-01-02T15:50:59.563Z,66.94
2023-01-02T15:53:33.824Z,67.15
2023-01-02T15:56:02.468Z,67.20
2023-01-02T15:58:32.833Z,67.29
2023-01-02T16:01:14.815Z,67.15
2023-01-02T16:04:01.344Z,67.33
2023-01-02T16:06:35.292Z,67.34
2023-01-02T16:09:06.719Z,67.31
2023-01-02T16:11:45.914Z,67.49
2023-01-02T16:14:42.428Z,67.18
2023-01-02T16:17:37.146Z,67.26
2023-01-02T16:20:17.314Z,67.38
2023-01-02T16:22:54.271Z,67.10
2023-01-02T16:25:45.796Z,66.62
2023-01-02T16:28:34.736Z,66.66
2023-01-02T16:31:12.924Z,66.86
2023-01-02T16:33:42.965Z,67.10
2023-01-02T16:36:17.070Z,66.89
2023-01-02T16:38:52.680Z,67.10
2023-01-02T16:41:37.548Z,67.14
2023-01-02T16:44:15.511Z,67.19
2023-01-02T16:46:46.402Z,66.90
2023-01-02T16:49:18.585Z,67.00
2023-01-02T16:51:48.683Z,67.08
2023-01-02T16:54:18.749Z,66.66
2023-01-02T16:56:48.345Z,66.47
2023-01-02T16:59:16.825Z,66.32
2023-01-02T17:01:45.336Z,65.99
2023-01-02T17:04:14.428Z,65.76
2023-01-02T17:06:42.904Z,65.75
2023-01-02T17:09:11.372Z,65.99
2023-01-02T17:12:00.401Z,65.87
2023-01-02T17:14:31.209Z,65.76
2023-01-02T17:17:00.649Z,65.29
2023-01-02T17:19:29.429Z,65.08
2023-01-02T17:22:00.347Z,65.20
2023-01-02T17:24:28.697Z,64.87
2023-01-02T17:26:57.158Z,64.65
2023-01-02T17:29:25.590Z,64.06
2023-01-02T17:31:53.956Z,64.22
2023-01-02T17:34:22.419Z,64.09
2023-01-02T17:36:50.856Z,64.08
2023-01-02T17:39:19.235Z,63.86
2023-01-02T17:41:47.701Z,63.74
2023-01-02T17:44:16.185Z,63.78
2023-01-02T17:49:33.237Z,63.47
2023-01-02T17:52:01.758Z,63.50
2023-01-02T17:54:30.270Z,63.36
2023-01-02T17:56:58.752Z,63.39
2023-01-02T17:59:27.329Z,63.27
2023-01-02T18:01:56.016Z,63.12
2023-01-02T18:04:24.825Z,62.96
2023-01-02T18:06:53.204Z,62.98
2023-01-02T18:09:21.627Z,63.09
2023-01-02T18:11:49.949Z,62.61
2023-01-02T18:14:25.629Z,62.55
2023-01-02T18:16:57.983Z,62.12
2023-01-02T18:19:29.140Z,61.54
2023-01-02T18:21:57.498Z,61.76
2023-01-02T18:24:33.642Z,61.39
2023-01-02T18:27:33.629Z,60.89
2023-01-02T18:30:18.583Z,60.87
2023-01-02T18:32:47.697Z,60.52
2023-01-02T18:35:56.016Z,60.51
2023-01-02T18:38:32.375Z,60.46
2023-01-02T18:41:00.995Z,59.95
2023-01-02T18:43:36.684Z,59.98
2023-01-02T18:47:02.324Z,59.81
2023-01-02T18:49:24.668Z,59.58
2023-01-02T18:52:23.385Z,59.07
2023-01-02T18:55:00.370Z,59.68
2023-01-02T18:57:35.238Z,59.46
2023-01-02T19:00:18.604Z,58.96
2023-01-02T19:03:12.700Z,58.26
2023-01-02T19:05:46.089Z,58.20
2023-01-02T19:08:19.334Z,58.40
2023-01-02T19:10:54.440Z,57.72
2023-01-02T19:13:28.996Z,57.78
2023-01-02T19:16:07.223Z,57.53
2023-01-02T19:18:41.318Z,57.59
2023-01-02T19:21:31.874Z,57.72
2023-01-02T19:24:03.386Z,57.94
2023-01-02T19:26:37.322Z,57.69
2023-01-02T19:29:13.297Z,57.66
2023-01-02T19:31:46.118Z,56.74
2023-01-02T19:34:40.841Z,57.51
2023-01-02T19:37:12.196Z,57.09
2023-01-02T19:39:49.752Z,57.42
2023-01-02T19:42:21.466Z,57.12
2023-01-02T19:44:55.065Z,56.81
2023-01-02T19:47:28.835Z,56.93
2023-01-02T19:49:58.048Z,57.04
2023-01-02T19:52:28.169Z,56.83
2023-01-02T19:54:56.649Z,57.29
2023-01-02T19:57:25.965Z,57.02
2023-01-02T19:59:59.873Z,57.28
2023-01-02T20:02:29.398Z,57.45
2023-01-02T20:04:58.275Z,56.74
2023-01-02T20:07:27.807Z,57.09
2023-01-02T20:09:56.190Z,57.17
2023-01-02T20:12:41.500Z,57.58
2023-01-02T20:15:18.476Z,57.48
2023-01-02T20:17:47.878Z,57.28
2023-01-02T20:20:21.950Z,57.61
2023-01-02T20:22:52.463Z,57.10
2023-01-02T20:25:25.031Z,57.46
2023-01-02T20:27:55.203Z,57.32
2023-01-02T20:30:25.224Z,57.56
2023-01-02T20:32:54.755Z,57.58
2023-01-02T20:35:24.167Z,57.37
2023-01-02T20:37:52.970Z,57.67
2023-01-02T20:40:21.466Z,57.38
2023-01-02T20:42:49.791Z,57.42
2023-01-02T20:45:18.312Z,57.52
2023-01-02T20:47:46.690Z,57.52
2023-01-02T20:50:15.066Z,57.61
2023-01-02T20:52:43.396Z,57.50
2023-01-02T20:55:12.210Z,57.13
2023-01-02T20:57:40.587Z,57.02
2023-01-02T21:00:12.813Z,56.77
2023-01-02T21:02:41.288Z,57.14
2023-01-02T21:05:10.388Z,57.01
2023-01-02T21:07:38.765Z,56.46
2023-01-02T21:10:07.976Z,56.87
2023-01-02T21:12:54.714Z,56.91
2023-01-02T21:15:41.827Z,56.30
2023-01-02T21:18:10.916Z,56.26
2023-01-02T21:20:44.384Z,56.33
2023-01-02T21:23:15.253Z,56.46
2023-01-02T21:25:43.864Z,56.58
2023-01-02T21:28:13.481Z,56.06
2023-01-02T21:30:44.506Z,56.32
2023-01-02T21:33:14.908Z,56.51
2023-01-02T21:35:44.177Z,56.30
2023-01-02T21:38:13.161Z,56.01
2023-01-02T21:40:41.958Z,56.06
2023-01-02T21:43:11.530Z,56.50
2023-01-02T21:45:40.038Z,56.35
2023-01-02T21:48:09.209Z,56.41
2023-01-02T21:50:37.711Z,56.47
2023-01-02T21:53:06.915Z,55.86
2023-01-02T21:55:35.298Z,56.24
2023-01-02T21:58:18.909Z,55.66
2023-01-02T22:00:47.540Z,55.70
2023-01-02T22:03:16.210Z,56.27
2023-01-02T22:05:44.848Z,56.08
2023-01-02T22:08:13.334Z,55.78
2023-01-02T22:10:41.706Z,56.28
2023-01-02T22:13:10.166Z,56.23
2023-01-02T22:15:38.659Z,56.53
2023-01-02T22:18:07.230Z,56.87
2023-01-02T22:20:35.729Z,56.93
2023-01-02T22:23:04.244Z,56.77
2023-01-02T22:25:33.230Z,56.72
2023-01-02T22:28:01.958Z,57.11
2023-01-02T22:30:34.452Z,57.47
2023-01-02T22:33:04.203Z,57.40
2023-01-02T22:35:33.847Z,57.43
2023-01-02T22:38:02.461Z,57.72
2023-01-02T22:40:30.819Z,57.95
2023-01-02T22:43:02.932Z,57.92
2023-01-02T22:45:42.776Z,57.89
2023-01-02T22:48:38.173Z,57.88
2023-01-02T22:51:11.928Z,58.12
2023-01-02T22:53:41.789Z,57.95
2023-01-02T22:56:17.991Z,57.48
2023-01-02T22:58:47.632Z,57.43
2023-01-02T23:01:34.571Z,57.67
2023-01-02T23:04:03.043Z,57.61
2023-01-02T23:06:31.751Z,57.90
2023-01-02T23:09:00.234Z,58.05
2023-01-02T23:11:28.708Z,57.72
2023-01-02T23:13:57.159Z,58.22
2023-01-02T23:16:44.276Z,58.42
2023-01-02T23:19:16.412Z,58.16
2023-01-02T23:21:47.912Z,58.20
2023-01-02T23:24:22.683Z,58.55
2023-01-02T23:26:53.322Z,58.53
2023-01-02T23:29:23.769Z,58.80
2023-01-02T23:31:53.722Z,58.53
2023-01-02T23:34:29.055Z,58.80
2023-01-02T23:36:59.857Z,58.83
2023-01-02T23:39:31.753Z,58.63
2023-01-02T23:42:00.723Z,58.80
2023-01-02T23:44:29.147Z,59.34
2023-01-02T23:46:58.029Z,59.56
2023-01-02T23:49:26.502Z,59.62
2023-01-02T23:51:54.979Z,59.29
2023-01-02T23:54:23.768Z,59.78
2023-01-02T23:56:53.148Z,60.11
2023-01-02T23:59:24.051Z,60.12
